sensor_id;sensor_type;location;lat;lon;timestamp;P1;durP1;ratioP1;P2;durP2;ratioP2
66179;SDS011;52986;44.028;20.466;2023-12-28T00:01:23;74.32;;;30.65;;
66179;SDS011;52986;44.028;20.466;2023-12-28T00:03:49;76.45;;;30.85;;
66179;SDS011;52986;44.028;20.466;2023-12-28T00:06:15;80.40;;;32.28;;
66179;SDS011;52986;44.028;20.466;2023-12-28T00:08:41;74.95;;;32.55;;
66179;SDS011;52986;44.028;20.466;2023-12-28T00:11:06;72.88;;;29.95;;
66179;SDS011;52986;44.028;20.466;2023-12-28T00:13:32;84.20;;;35.05;;
66179;SDS011;52986;44.028;20.466;2023-12-28T00:15:57;74.93;;;30.55;;
66179;SDS011;52986;44.028;20.466;2023-12-28T00:18:23;71.28;;;30.30;;
66179;SDS011;52986;44.028;20.466;2023-12-28T00:20:49;78.28;;;31.38;;
66179;SDS011;52986;44.028;20.466;2023-12-28T00:23:15;70.90;;;29.65;;
66179;SDS011;52986;44.028;20.466;2023-12-28T00:25:40;88.53;;;37.08;;
66179;SDS011;52986;44.028;20.466;2023-12-28T00:28:05;95.35;;;37.28;;
66179;SDS011;52986;44.028;20.466;2023-12-28T00:30:31;94.82;;;39.20;;
66179;SDS011;52986;44.028;20.466;2023-12-28T00:32:57;80.88;;;33.40;;
66179;SDS011;52986;44.028;20.466;2023-12-28T00:35:23;76.28;;;30.15;;
66179;SDS011;52986;44.028;20.466;2023-12-28T00:37:48;68.18;;;28.10;;
66179;SDS011;52986;44.028;20.466;2023-12-28T00:40:14;66.88;;;27.90;;
66179;SDS011;52986;44.028;20.466;2023-12-28T00:42:39;66.97;;;27.70;;
66179;SDS011;52986;44.028;20.466;2023-12-28T00:45:06;66.55;;;27.25;;
66179;SDS011;52986;44.028;20.466;2023-12-28T00:47:32;65.32;;;27.77;;
66179;SDS011;52986;44.028;20.466;2023-12-28T00:49:58;70.82;;;29.65;;
66179;SDS011;52986;44.028;20.466;2023-12-28T00:52:23;64.05;;;28.10;;
66179;SDS011;52986;44.028;20.466;2023-12-28T00:54:49;62.00;;;27.60;;
66179;SDS011;52986;44.028;20.466;2023-12-28T00:57:14;68.43;;;28.45;;
66179;SDS011;52986;44.028;20.466;2023-12-28T00:59:39;68.03;;;28.17;;
66179;SDS011;52986;44.028;20.466;2023-12-28T01:02:05;63.25;;;24.48;;
66179;SDS011;52986;44.028;20.466;2023-12-28T01:04:31;60.03;;;25.80;;
66179;SDS011;52986;44.028;20.466;2023-12-28T01:06:56;60.65;;;26.27;;
66179;SDS011;52986;44.028;20.466;2023-12-28T01:09:23;56.25;;;24.42;;
66179;SDS011;52986;44.028;20.466;2023-12-28T01:11:49;58.50;;;24.35;;
66179;SDS011;52986;44.028;20.466;2023-12-28T01:14:14;56.28;;;24.67;;
66179;SDS011;52986;44.028;20.466;2023-12-28T01:16:40;55.85;;;23.48;;
66179;SDS011;52986;44.028;20.466;2023-12-28T01:19:05;59.30;;;24.33;;
66179;SDS011;52986;44.028;20.466;2023-12-28T01:21:31;60.63;;;24.15;;
66179;SDS011;52986;44.028;20.466;2023-12-28T01:23:56;58.80;;;25.52;;
66179;SDS011;52986;44.028;20.466;2023-12-28T01:26:22;57.17;;;24.05;;
66179;SDS011;52986;44.028;20.466;2023-12-28T01:28:47;53.17;;;23.52;;
66179;SDS011;52986;44.028;20.466;2023-12-28T01:31:13;56.60;;;24.20;;
66179;SDS011;52986;44.028;20.466;2023-12-28T01:33:38;55.30;;;23.40;;
66179;SDS011;52986;44.028;20.466;2023-12-28T01:36:17;52.05;;;21.60;;
66179;SDS011;52986;44.028;20.466;2023-12-28T01:38:46;53.72;;;22.63;;
66179;SDS011;52986;44.028;20.466;2023-12-28T01:41:11;55.33;;;23.17;;
66179;SDS011;52986;44.028;20.466;2023-12-28T01:43:38;55.38;;;23.20;;
66179;SDS011;52986;44.028;20.466;2023-12-28T01:46:05;52.08;;;21.42;;
66179;SDS011;52986;44.028;20.466;2023-12-28T01:48:31;50.90;;;21.98;;
66179;SDS011;52986;44.028;20.466;2023-12-28T01:50:57;58.80;;;25.42;;
66179;SDS011;52986;44.028;20.466;2023-12-28T01:53:23;57.90;;;24.38;;
66179;SDS011;52986;44.028;20.466;2023-12-28T01:55:49;54.22;;;23.50;;
66179;SDS011;52986;44.028;20.466;2023-12-28T01:58:14;55.38;;;25.08;;
66179;SDS011;52986;44.028;20.466;2023-12-28T02:00:40;57.05;;;24.50;;
66179;SDS011;52986;44.028;20.466;2023-12-28T02:03:07;61.03;;;25.25;;
66179;SDS011;52986;44.028;20.466;2023-12-28T02:05:33;58.45;;;25.20;;
66179;SDS011;52986;44.028;20.466;2023-12-28T02:07:59;60.00;;;25.63;;
66179;SDS011;52986;44.028;20.466;2023-12-28T02:10:25;62.00;;;25.67;;
66179;SDS011;52986;44.028;20.466;2023-12-28T02:12:51;57.28;;;23.90;;
66179;SDS011;52986;44.028;20.466;2023-12-28T02:15:18;55.72;;;24.00;;
66179;SDS011;52986;44.028;20.466;2023-12-28T02:17:55;58.08;;;24.88;;
66179;SDS011;52986;44.028;20.466;2023-12-28T02:20:27;62.72;;;26.10;;
66179;SDS011;52986;44.028;20.466;2023-12-28T02:22:55;61.40;;;25.73;;
66179;SDS011;52986;44.028;20.466;2023-12-28T02:25:21;71.10;;;28.00;;
66179;SDS011;52986;44.028;20.466;2023-12-28T02:27:47;63.00;;;26.77;;
66179;SDS011;52986;44.028;20.466;2023-12-28T02:30:17;69.97;;;28.05;;
66179;SDS011;52986;44.028;20.466;2023-12-28T02:38:28;68.15;;;27.00;;
66179;SDS011;52986;44.028;20.466;2023-12-28T02:40:55;66.88;;;26.88;;
66179;SDS011;52986;44.028;20.466;2023-12-28T02:43:21;65.22;;;27.88;;
66179;SDS011;52986;44.028;20.466;2023-12-28T02:45:47;62.33;;;27.40;;
66179;SDS011;52986;44.028;20.466;2023-12-28T02:48:12;67.80;;;26.42;;
66179;SDS011;52986;44.028;20.466;2023-12-28T02:50:38;64.35;;;25.55;;
66179;SDS011;52986;44.028;20.466;2023-12-28T02:53:03;68.00;;;26.20;;
66179;SDS011;52986;44.028;20.466;2023-12-28T02:55:29;73.30;;;31.50;;
66179;SDS011;52986;44.028;20.466;2023-12-28T02:57:55;68.72;;;27.50;;
66179;SDS011;52986;44.028;20.466;2023-12-28T03:00:24;70.50;;;28.73;;
66179;SDS011;52986;44.028;20.466;2023-12-28T03:02:50;61.38;;;26.92;;
66179;SDS011;52986;44.028;20.466;2023-12-28T03:05:15;62.55;;;26.23;;
66179;SDS011;52986;44.028;20.466;2023-12-28T03:07:41;58.58;;;25.23;;
66179;SDS011;52986;44.028;20.466;2023-12-28T03:10:07;59.00;;;26.27;;
66179;SDS011;52986;44.028;20.466;2023-12-28T03:12:33;57.20;;;25.50;;
66179;SDS011;52986;44.028;20.466;2023-12-28T03:14:59;60.40;;;26.63;;
66179;SDS011;52986;44.028;20.466;2023-12-28T03:17:24;58.72;;;24.17;;
66179;SDS011;52986;44.028;20.466;2023-12-28T03:19:49;59.70;;;24.70;;
66179;SDS011;52986;44.028;20.466;2023-12-28T03:22:15;61.67;;;24.60;;
66179;SDS011;52986;44.028;20.466;2023-12-28T03:24:42;63.58;;;25.27;;
66179;SDS011;52986;44.028;20.466;2023-12-28T03:27:07;59.13;;;24.85;;
66179;SDS011;52986;44.028;20.466;2023-12-28T03:29:33;59.83;;;25.15;;
66179;SDS011;52986;44.028;20.466;2023-12-28T03:31:58;59.03;;;23.13;;
66179;SDS011;52986;44.028;20.466;2023-12-28T03:34:24;57.65;;;24.20;;
66179;SDS011;52986;44.028;20.466;2023-12-28T03:36:51;52.75;;;23.48;;
66179;SDS011;52986;44.028;20.466;2023-12-28T03:39:17;55.80;;;23.63;;
66179;SDS011;52986;44.028;20.466;2023-12-28T03:41:43;54.90;;;23.83;;
66179;SDS011;52986;44.028;20.466;2023-12-28T03:44:08;57.33;;;24.58;;
66179;SDS011;52986;44.028;20.466;2023-12-28T03:46:34;53.20;;;23.20;;
66179;SDS011;52986;44.028;20.466;2023-12-28T03:49:00;53.05;;;22.13;;
66179;SDS011;52986;44.028;20.466;2023-12-28T03:51:25;47.63;;;20.48;;
66179;SDS011;52986;44.028;20.466;2023-12-28T03:53:50;48.83;;;21.10;;
66179;SDS011;52986;44.028;20.466;2023-12-28T03:56:23;48.10;;;19.73;;
66179;SDS011;52986;44.028;20.466;2023-12-28T03:58:49;49.15;;;20.10;;
66179;SDS011;52986;44.028;20.466;2023-12-28T04:01:19;46.60;;;19.75;;
66179;SDS011;52986;44.028;20.466;2023-12-28T04:03:45;44.88;;;20.23;;
66179;SDS011;52986;44.028;20.466;2023-12-28T04:06:11;45.72;;;18.90;;
66179;SDS011;52986;44.028;20.466;2023-12-28T04:08:38;45.63;;;18.92;;
66179;SDS011;52986;44.028;20.466;2023-12-28T04:11:03;46.28;;;19.55;;
66179;SDS011;52986;44.028;20.466;2023-12-28T04:13:29;44.78;;;18.90;;
66179;SDS011;52986;44.028;20.466;2023-12-28T04:15:54;50.78;;;20.70;;
66179;SDS011;52986;44.028;20.466;2023-12-28T04:18:20;51.08;;;21.38;;
66179;SDS011;52986;44.028;20.466;2023-12-28T04:20:45;54.83;;;23.75;;
66179;SDS011;52986;44.028;20.466;2023-12-28T04:23:11;49.63;;;22.67;;
66179;SDS011;52986;44.028;20.466;2023-12-28T04:25:36;54.33;;;21.75;;
66179;SDS011;52986;44.028;20.466;2023-12-28T04:28:02;51.53;;;22.63;;
66179;SDS011;52986;44.028;20.466;2023-12-28T04:30:27;59.35;;;25.52;;
66179;SDS011;52986;44.028;20.466;2023-12-28T04:32:53;59.58;;;24.90;;
66179;SDS011;52986;44.028;20.466;2023-12-28T04:35:18;65.57;;;24.90;;
66179;SDS011;52986;44.028;20.466;2023-12-28T04:37:44;53.63;;;22.08;;
66179;SDS011;52986;44.028;20.466;2023-12-28T04:40:10;47.55;;;20.58;;
66179;SDS011;52986;44.028;20.466;2023-12-28T04:42:35;58.00;;;23.38;;
66179;SDS011;52986;44.028;20.466;2023-12-28T04:45:01;58.13;;;23.60;;
66179;SDS011;52986;44.028;20.466;2023-12-28T04:47:26;53.88;;;22.65;;
66179;SDS011;52986;44.028;20.466;2023-12-28T04:49:52;54.15;;;22.90;;
66179;SDS011;52986;44.028;20.466;2023-12-28T04:52:17;66.68;;;25.20;;
66179;SDS011;52986;44.028;20.466;2023-12-28T04:54:43;63.63;;;25.67;;
66179;SDS011;52986;44.028;20.466;2023-12-28T04:57:08;69.88;;;27.15;;
66179;SDS011;52986;44.028;20.466;2023-12-28T04:59:38;61.17;;;25.15;;
66179;SDS011;52986;44.028;20.466;2023-12-28T05:02:04;59.33;;;23.95;;
66179;SDS011;52986;44.028;20.466;2023-12-28T05:04:29;58.97;;;25.05;;
66179;SDS011;52986;44.028;20.466;2023-12-28T05:06:55;61.55;;;25.98;;
66179;SDS011;52986;44.028;20.466;2023-12-28T05:09:20;64.22;;;27.52;;
66179;SDS011;52986;44.028;20.466;2023-12-28T05:11:46;61.53;;;27.45;;
66179;SDS011;52986;44.028;20.466;2023-12-28T05:14:11;59.33;;;25.20;;
66179;SDS011;52986;44.028;20.466;2023-12-28T05:16:37;60.58;;;26.83;;
66179;SDS011;52986;44.028;20.466;2023-12-28T05:19:02;59.03;;;25.95;;
66179;SDS011;52986;44.028;20.466;2023-12-28T05:21:28;64.70;;;26.63;;
66179;SDS011;52986;44.028;20.466;2023-12-28T05:23:53;70.30;;;29.02;;
66179;SDS011;52986;44.028;20.466;2023-12-28T05:26:19;65.20;;;28.33;;
66179;SDS011;52986;44.028;20.466;2023-12-28T05:28:44;60.83;;;26.38;;
66179;SDS011;52986;44.028;20.466;2023-12-28T05:31:09;65.05;;;27.92;;
66179;SDS011;52986;44.028;20.466;2023-12-28T05:33:35;73.93;;;30.15;;
66179;SDS011;52986;44.028;20.466;2023-12-28T05:36:00;74.07;;;31.23;;
66179;SDS011;52986;44.028;20.466;2023-12-28T05:38:26;67.53;;;28.60;;
66179;SDS011;52986;44.028;20.466;2023-12-28T05:40:51;77.25;;;30.88;;
66179;SDS011;52986;44.028;20.466;2023-12-28T05:43:16;77.88;;;29.65;;
66179;SDS011;52986;44.028;20.466;2023-12-28T05:45:42;66.05;;;27.98;;
66179;SDS011;52986;44.028;20.466;2023-12-28T05:48:07;73.43;;;30.38;;
66179;SDS011;52986;44.028;20.466;2023-12-28T05:50:33;77.78;;;33.47;;
66179;SDS011;52986;44.028;20.466;2023-12-28T05:52:58;81.43;;;32.60;;
66179;SDS011;52986;44.028;20.466;2023-12-28T05:55:24;85.65;;;34.60;;
66179;SDS011;52986;44.028;20.466;2023-12-28T05:57:50;89.03;;;35.95;;
66179;SDS011;52986;44.028;20.466;2023-12-28T06:00:15;74.03;;;31.63;;
66179;SDS011;52986;44.028;20.466;2023-12-28T06:02:41;74.43;;;30.83;;
66179;SDS011;52986;44.028;20.466;2023-12-28T06:05:07;84.78;;;35.50;;
66179;SDS011;52986;44.028;20.466;2023-12-28T06:07:32;78.03;;;33.70;;
66179;SDS011;52986;44.028;20.466;2023-12-28T06:09:58;80.35;;;35.72;;
66179;SDS011;52986;44.028;20.466;2023-12-28T06:12:24;78.65;;;34.78;;
66179;SDS011;52986;44.028;20.466;2023-12-28T06:14:49;86.38;;;37.15;;
66179;SDS011;52986;44.028;20.466;2023-12-28T06:17:15;86.15;;;36.03;;
66179;SDS011;52986;44.028;20.466;2023-12-28T06:19:41;79.05;;;33.72;;
66179;SDS011;52986;44.028;20.466;2023-12-28T06:22:06;81.20;;;34.55;;
66179;SDS011;52986;44.028;20.466;2023-12-28T06:24:32;88.25;;;35.10;;
66179;SDS011;52986;44.028;20.466;2023-12-28T06:26:57;89.50;;;37.38;;
66179;SDS011;52986;44.028;20.466;2023-12-28T06:29:23;91.03;;;39.78;;
66179;SDS011;52986;44.028;20.466;2023-12-28T06:31:48;88.50;;;38.00;;
66179;SDS011;52986;44.028;20.466;2023-12-28T06:34:13;93.40;;;38.00;;
66179;SDS011;52986;44.028;20.466;2023-12-28T06:36:39;103.82;;;41.38;;
66179;SDS011;52986;44.028;20.466;2023-12-28T06:39:04;112.00;;;45.70;;
66179;SDS011;52986;44.028;20.466;2023-12-28T06:41:30;104.72;;;40.40;;
66179;SDS011;52986;44.028;20.466;2023-12-28T06:43:55;103.10;;;39.25;;
66179;SDS011;52986;44.028;20.466;2023-12-28T06:46:21;97.47;;;40.83;;
66179;SDS011;52986;44.028;20.466;2023-12-28T06:48:46;91.70;;;37.40;;
66179;SDS011;52986;44.028;20.466;2023-12-28T06:51:21;90.18;;;36.30;;
66179;SDS011;52986;44.028;20.466;2023-12-28T06:53:47;92.85;;;36.75;;
66179;SDS011;52986;44.028;20.466;2023-12-28T06:56:13;92.05;;;37.13;;
66179;SDS011;52986;44.028;20.466;2023-12-28T06:58:39;92.05;;;37.58;;
66179;SDS011;52986;44.028;20.466;2023-12-28T07:01:05;88.13;;;35.10;;
66179;SDS011;52986;44.028;20.466;2023-12-28T07:03:34;93.13;;;42.22;;
66179;SDS011;52986;44.028;20.466;2023-12-28T07:05:59;87.22;;;36.65;;
66179;SDS011;52986;44.028;20.466;2023-12-28T07:08:25;93.50;;;37.55;;
66179;SDS011;52986;44.028;20.466;2023-12-28T07:10:50;113.40;;;46.50;;
66179;SDS011;52986;44.028;20.466;2023-12-28T07:13:16;114.28;;;43.13;;
66179;SDS011;52986;44.028;20.466;2023-12-28T07:15:41;111.07;;;43.85;;
66179;SDS011;52986;44.028;20.466;2023-12-28T07:18:07;107.85;;;46.67;;
66179;SDS011;52986;44.028;20.466;2023-12-28T07:20:32;108.00;;;46.25;;
66179;SDS011;52986;44.028;20.466;2023-12-28T07:22:57;105.65;;;44.60;;
66179;SDS011;52986;44.028;20.466;2023-12-28T07:25:23;138.80;;;56.05;;
66179;SDS011;52986;44.028;20.466;2023-12-28T07:27:48;150.90;;;61.72;;
66179;SDS011;52986;44.028;20.466;2023-12-28T07:30:14;122.20;;;53.22;;
66179;SDS011;52986;44.028;20.466;2023-12-28T07:32:41;119.57;;;51.85;;
66179;SDS011;52986;44.028;20.466;2023-12-28T07:35:07;111.72;;;50.70;;
66179;SDS011;52986;44.028;20.466;2023-12-28T07:37:33;106.45;;;49.88;;
66179;SDS011;52986;44.028;20.466;2023-12-28T07:39:59;103.07;;;50.00;;
66179;SDS011;52986;44.028;20.466;2023-12-28T07:42:25;105.57;;;51.67;;
66179;SDS011;52986;44.028;20.466;2023-12-28T07:44:51;107.07;;;52.33;;
66179;SDS011;52986;44.028;20.466;2023-12-28T07:47:16;111.13;;;55.95;;
66179;SDS011;52986;44.028;20.466;2023-12-28T07:49:42;110.57;;;54.58;;
66179;SDS011;52986;44.028;20.466;2023-12-28T07:52:07;102.78;;;52.83;;
66179;SDS011;52986;44.028;20.466;2023-12-28T07:54:33;106.00;;;55.17;;
66179;SDS011;52986;44.028;20.466;2023-12-28T07:56:59;102.72;;;54.65;;
66179;SDS011;52986;44.028;20.466;2023-12-28T07:59:25;91.70;;;53.17;;
66179;SDS011;52986;44.028;20.466;2023-12-28T08:01:50;103.32;;;54.63;;
66179;SDS011;52986;44.028;20.466;2023-12-28T08:04:16;93.28;;;49.55;;
66179;SDS011;52986;44.028;20.466;2023-12-28T08:06:41;82.18;;;46.75;;
66179;SDS011;52986;44.028;20.466;2023-12-28T08:09:06;83.68;;;45.85;;
66179;SDS011;52986;44.028;20.466;2023-12-28T08:11:32;81.32;;;44.40;;
66179;SDS011;52986;44.028;20.466;2023-12-28T08:13:57;78.15;;;44.05;;
66179;SDS011;52986;44.028;20.466;2023-12-28T08:16:23;83.93;;;48.25;;
66179;SDS011;52986;44.028;20.466;2023-12-28T08:18:48;88.22;;;50.72;;
66179;SDS011;52986;44.028;20.466;2023-12-28T08:21:14;82.97;;;47.00;;
66179;SDS011;52986;44.028;20.466;2023-12-28T08:23:39;82.75;;;46.83;;
66179;SDS011;52986;44.028;20.466;2023-12-28T08:26:05;78.43;;;46.63;;
66179;SDS011;52986;44.028;20.466;2023-12-28T08:28:32;79.28;;;45.45;;
66179;SDS011;52986;44.028;20.466;2023-12-28T08:30:58;77.10;;;43.55;;
66179;SDS011;52986;44.028;20.466;2023-12-28T08:33:23;80.28;;;46.28;;
66179;SDS011;52986;44.028;20.466;2023-12-28T08:35:48;92.78;;;53.05;;
66179;SDS011;52986;44.028;20.466;2023-12-28T08:38:14;74.28;;;44.13;;
66179;SDS011;52986;44.028;20.466;2023-12-28T08:40:39;76.65;;;43.90;;
66179;SDS011;52986;44.028;20.466;2023-12-28T08:43:05;71.03;;;43.72;;
66179;SDS011;52986;44.028;20.466;2023-12-28T08:45:30;81.35;;;48.00;;
66179;SDS011;52986;44.028;20.466;2023-12-28T08:47:56;77.65;;;44.28;;
66179;SDS011;52986;44.028;20.466;2023-12-28T08:50:21;82.88;;;45.15;;
66179;SDS011;52986;44.028;20.466;2023-12-28T08:52:47;77.30;;;44.72;;
66179;SDS011;52986;44.028;20.466;2023-12-28T08:55:13;77.93;;;47.45;;
66179;SDS011;52986;44.028;20.466;2023-12-28T08:57:39;83.80;;;52.58;;
66179;SDS011;52986;44.028;20.466;2023-12-28T09:00:05;80.38;;;51.30;;
66179;SDS011;52986;44.028;20.466;2023-12-28T09:02:31;84.95;;;54.42;;
66179;SDS011;52986;44.028;20.466;2023-12-28T09:04:57;86.78;;;53.35;;
66179;SDS011;52986;44.028;20.466;2023-12-28T09:07:24;95.60;;;62.00;;
66179;SDS011;52986;44.028;20.466;2023-12-28T09:09:50;88.95;;;56.90;;
66179;SDS011;52986;44.028;20.466;2023-12-28T09:12:15;86.63;;;56.17;;
66179;SDS011;52986;44.028;20.466;2023-12-28T09:14:41;83.28;;;53.22;;
66179;SDS011;52986;44.028;20.466;2023-12-28T09:17:06;83.07;;;49.75;;
66179;SDS011;52986;44.028;20.466;2023-12-28T09:19:31;64.95;;;40.63;;
66179;SDS011;52986;44.028;20.466;2023-12-28T09:21:57;47.38;;;30.40;;
66179;SDS011;52986;44.028;20.466;2023-12-28T09:24:22;45.30;;;28.83;;
66179;SDS011;52986;44.028;20.466;2023-12-28T09:26:48;52.22;;;32.13;;
66179;SDS011;52986;44.028;20.466;2023-12-28T09:29:13;52.95;;;33.25;;
66179;SDS011;52986;44.028;20.466;2023-12-28T09:31:39;45.50;;;30.27;;
66179;SDS011;52986;44.028;20.466;2023-12-28T09:34:04;50.28;;;31.02;;
66179;SDS011;52986;44.028;20.466;2023-12-28T09:36:30;43.95;;;28.50;;
66179;SDS011;52986;44.028;20.466;2023-12-28T09:38:56;46.47;;;30.90;;
66179;SDS011;52986;44.028;20.466;2023-12-28T09:41:24;45.28;;;31.15;;
66179;SDS011;52986;44.028;20.466;2023-12-28T09:44:05;43.10;;;27.17;;
66179;SDS011;52986;44.028;20.466;2023-12-28T09:46:33;44.42;;;27.00;;
66179;SDS011;52986;44.028;20.466;2023-12-28T09:49:00;36.75;;;24.65;;
66179;SDS011;52986;44.028;20.466;2023-12-28T09:51:27;41.95;;;26.67;;
66179;SDS011;52986;44.028;20.466;2023-12-28T09:53:52;36.38;;;24.15;;
66179;SDS011;52986;44.028;20.466;2023-12-28T09:56:18;36.55;;;22.60;;
66179;SDS011;52986;44.028;20.466;2023-12-28T09:58:44;32.83;;;22.70;;
66179;SDS011;52986;44.028;20.466;2023-12-28T10:01:13;36.03;;;24.05;;
66179;SDS011;52986;44.028;20.466;2023-12-28T10:03:39;35.72;;;23.33;;
66179;SDS011;52986;44.028;20.466;2023-12-28T10:06:05;32.38;;;21.30;;
66179;SDS011;52986;44.028;20.466;2023-12-28T10:08:30;33.60;;;22.15;;
66179;SDS011;52986;44.028;20.466;2023-12-28T10:10:56;32.47;;;21.27;;
66179;SDS011;52986;44.028;20.466;2023-12-28T10:13:23;31.38;;;20.90;;
66179;SDS011;52986;44.028;20.466;2023-12-28T10:15:50;32.40;;;21.10;;
66179;SDS011;52986;44.028;20.466;2023-12-28T10:18:18;32.70;;;21.55;;
66179;SDS011;52986;44.028;20.466;2023-12-28T10:20:49;34.85;;;21.80;;
66179;SDS011;52986;44.028;20.466;2023-12-28T10:25:40;33.10;;;21.52;;
66179;SDS011;52986;44.028;20.466;2023-12-28T10:28:07;29.17;;;18.75;;
66179;SDS011;52986;44.028;20.466;2023-12-28T10:30:32;33.55;;;20.52;;
66179;SDS011;52986;44.028;20.466;2023-12-28T10:32:58;30.50;;;19.90;;
66179;SDS011;52986;44.028;20.466;2023-12-28T10:35:23;30.25;;;19.25;;
66179;SDS011;52986;44.028;20.466;2023-12-28T10:37:50;28.13;;;18.00;;
66179;SDS011;52986;44.028;20.466;2023-12-28T10:40:18;30.00;;;19.52;;
66179;SDS011;52986;44.028;20.466;2023-12-28T10:42:49;26.67;;;17.40;;
66179;SDS011;52986;44.028;20.466;2023-12-28T10:45:28;26.02;;;17.63;;
66179;SDS011;52986;44.028;20.466;2023-12-28T10:50:33;29.10;;;19.48;;
66179;SDS011;52986;44.028;20.466;2023-12-28T10:53:04;30.27;;;19.23;;
66179;SDS011;52986;44.028;20.466;2023-12-28T10:56:00;29.17;;;19.67;;
66179;SDS011;52986;44.028;20.466;2023-12-28T10:58:52;31.85;;;20.58;;
66179;SDS011;52986;44.028;20.466;2023-12-28T11:01:39;25.58;;;18.17;;
66179;SDS011;52986;44.028;20.466;2023-12-28T11:07:01;29.88;;;20.77;;
66179;SDS011;52986;44.028;20.466;2023-12-28T11:09:28;31.92;;;19.48;;
66179;SDS011;52986;44.028;20.466;2023-12-28T11:11:57;27.50;;;19.80;;
66179;SDS011;52986;44.028;20.466;2023-12-28T11:14:26;30.55;;;18.73;;
66179;SDS011;52986;44.028;20.466;2023-12-28T11:16:53;29.33;;;18.85;;
66179;SDS011;52986;44.028;20.466;2023-12-28T11:19:19;29.70;;;19.92;;
66179;SDS011;52986;44.028;20.466;2023-12-28T11:21:46;31.00;;;19.73;;
66179;SDS011;52986;44.028;20.466;2023-12-28T11:24:14;30.58;;;19.85;;
66179;SDS011;52986;44.028;20.466;2023-12-28T11:26:41;27.13;;;18.90;;
66179;SDS011;52986;44.028;20.466;2023-12-28T11:29:07;30.73;;;19.95;;
66179;SDS011;52986;44.028;20.466;2023-12-28T11:31:33;31.92;;;19.50;;
66179;SDS011;52986;44.028;20.466;2023-12-28T11:34:03;27.75;;;18.15;;
66179;SDS011;52986;44.028;20.466;2023-12-28T11:36:36;25.70;;;18.70;;
66179;SDS011;52986;44.028;20.466;2023-12-28T11:39:06;32.22;;;19.60;;
66179;SDS011;52986;44.028;20.466;2023-12-28T11:41:32;29.70;;;20.67;;
66179;SDS011;52986;44.028;20.466;2023-12-28T11:44:01;27.92;;;18.67;;
66179;SDS011;52986;44.028;20.466;2023-12-28T11:46:31;33.67;;;21.10;;
66179;SDS011;52986;44.028;20.466;2023-12-28T11:49:03;31.05;;;20.80;;
66179;SDS011;52986;44.028;20.466;2023-12-28T11:51:30;31.90;;;20.00;;
66179;SDS011;52986;44.028;20.466;2023-12-28T11:53:56;30.40;;;19.67;;
66179;SDS011;52986;44.028;20.466;2023-12-28T11:56:24;28.05;;;19.25;;
66179;SDS011;52986;44.028;20.466;2023-12-28T11:58:50;28.27;;;19.40;;
66179;SDS011;52986;44.028;20.466;2023-12-28T12:01:16;31.40;;;19.67;;
66179;SDS011;52986;44.028;20.466;2023-12-28T12:03:41;28.58;;;19.90;;
66179;SDS011;52986;44.028;20.466;2023-12-28T12:06:08;26.33;;;18.40;;
66179;SDS011;52986;44.028;20.466;2023-12-28T12:08:33;30.33;;;20.35;;
66179;SDS011;52986;44.028;20.466;2023-12-28T12:10:59;27.70;;;18.70;;
66179;SDS011;52986;44.028;20.466;2023-12-28T12:13:30;28.55;;;19.17;;
66179;SDS011;52986;44.028;20.466;2023-12-28T12:15:56;32.72;;;20.77;;
66179;SDS011;52986;44.028;20.466;2023-12-28T12:18:22;27.92;;;18.70;;
66179;SDS011;52986;44.028;20.466;2023-12-28T12:20:48;29.30;;;19.02;;
66179;SDS011;52986;44.028;20.466;2023-12-28T12:23:14;30.33;;;17.88;;
66179;SDS011;52986;44.028;20.466;2023-12-28T12:25:40;29.73;;;19.00;;
66179;SDS011;52986;44.028;20.466;2023-12-28T12:28:06;33.05;;;19.38;;
66179;SDS011;52986;44.028;20.466;2023-12-28T12:30:32;35.45;;;19.40;;
66179;SDS011;52986;44.028;20.466;2023-12-28T12:32:57;28.52;;;18.60;;
66179;SDS011;52986;44.028;20.466;2023-12-28T12:35:24;31.52;;;19.73;;
66179;SDS011;52986;44.028;20.466;2023-12-28T12:37:49;26.38;;;18.05;;
66179;SDS011;52986;44.028;20.466;2023-12-28T12:40:16;26.55;;;17.05;;
66179;SDS011;52986;44.028;20.466;2023-12-28T12:42:51;27.65;;;17.38;;
66179;SDS011;52986;44.028;20.466;2023-12-28T12:45:18;28.75;;;19.05;;
66179;SDS011;52986;44.028;20.466;2023-12-28T12:47:44;28.48;;;16.85;;
66179;SDS011;52986;44.028;20.466;2023-12-28T12:50:09;41.72;;;22.02;;
66179;SDS011;52986;44.028;20.466;2023-12-28T12:52:35;40.38;;;22.88;;
66179;SDS011;52986;44.028;20.466;2023-12-28T12:55:01;34.42;;;20.08;;
66179;SDS011;52986;44.028;20.466;2023-12-28T12:57:27;28.75;;;17.95;;
66179;SDS011;52986;44.028;20.466;2023-12-28T12:59:52;34.00;;;18.92;;
66179;SDS011;52986;44.028;20.466;2023-12-28T13:02:19;30.80;;;17.35;;
66179;SDS011;52986;44.028;20.466;2023-12-28T13:04:46;27.98;;;16.50;;
66179;SDS011;52986;44.028;20.466;2023-12-28T13:07:12;33.28;;;17.75;;
66179;SDS011;52986;44.028;20.466;2023-12-28T13:09:37;33.22;;;17.95;;
66179;SDS011;52986;44.028;20.466;2023-12-28T13:12:03;29.90;;;18.25;;
66179;SDS011;52986;44.028;20.466;2023-12-28T13:14:29;29.67;;;17.27;;
66179;SDS011;52986;44.028;20.466;2023-12-28T13:16:55;29.52;;;18.00;;
66179;SDS011;52986;44.028;20.466;2023-12-28T13:19:21;37.03;;;21.38;;
66179;SDS011;52986;44.028;20.466;2023-12-28T13:21:46;43.50;;;21.15;;
66179;SDS011;52986;44.028;20.466;2023-12-28T13:24:12;33.65;;;18.58;;
66179;SDS011;52986;44.028;20.466;2023-12-28T13:26:37;30.70;;;16.80;;
66179;SDS011;52986;44.028;20.466;2023-12-28T13:29:03;33.22;;;17.45;;
66179;SDS011;52986;44.028;20.466;2023-12-28T13:31:28;35.67;;;19.90;;
66179;SDS011;52986;44.028;20.466;2023-12-28T13:33:53;38.28;;;18.20;;
66179;SDS011;52986;44.028;20.466;2023-12-28T13:36:19;33.58;;;18.10;;
66179;SDS011;52986;44.028;20.466;2023-12-28T13:38:44;37.38;;;18.92;;
66179;SDS011;52986;44.028;20.466;2023-12-28T13:41:10;40.17;;;19.95;;
66179;SDS011;52986;44.028;20.466;2023-12-28T13:43:35;44.05;;;22.80;;
66179;SDS011;52986;44.028;20.466;2023-12-28T13:46:01;43.88;;;20.63;;
66179;SDS011;52986;44.028;20.466;2023-12-28T13:48:29;42.33;;;22.52;;
66179;SDS011;52986;44.028;20.466;2023-12-28T13:50:55;59.78;;;28.02;;
66179;SDS011;52986;44.028;20.466;2023-12-28T13:53:20;36.70;;;19.65;;
66179;SDS011;52986;44.028;20.466;2023-12-28T13:55:46;41.45;;;20.73;;
66179;SDS011;52986;44.028;20.466;2023-12-28T13:58:11;36.67;;;19.25;;
66179;SDS011;52986;44.028;20.466;2023-12-28T14:00:37;43.17;;;20.17;;
66179;SDS011;52986;44.028;20.466;2023-12-28T14:03:02;39.60;;;19.60;;
66179;SDS011;52986;44.028;20.466;2023-12-28T14:05:28;45.08;;;23.00;;
66179;SDS011;52986;44.028;20.466;2023-12-28T14:07:53;40.85;;;21.25;;
66179;SDS011;52986;44.028;20.466;2023-12-28T14:10:19;40.55;;;20.73;;
66179;SDS011;52986;44.028;20.466;2023-12-28T14:12:44;39.03;;;20.15;;
66179;SDS011;52986;44.028;20.466;2023-12-28T14:15:10;45.88;;;24.50;;
66179;SDS011;52986;44.028;20.466;2023-12-28T14:17:35;45.40;;;23.45;;